.
WxDataArchive / Data Records for 2014-05-11
2014-05-10 May 2014 2014-05-12

Data Records for Sunday, 11 May 2014

Time	Temp	Chill	HIndex	Humid	Dewpt	 Wind 	HiWind	WindDir	Rain 	Barom
-----	----	-----	------	-----	-----	------	------	-------	-----	-----
00:00	51.9	51.9	51.9	69	42.1	0	0	---	0.00	29.980 
00:05	51.7	51.7	51.7	69	41.9	0	0	---	0.00	29.980 
00:10	51.6	51.6	51.6	68	41.4	0	0	---	0.00	29.980 
00:15	51.4	51.4	51.4	69	41.6	0	0	---	0.00	29.985 
00:20	51.3	51.3	51.3	69	41.5	0	0	---	0.00	29.985 
00:25	51.1	51.1	51.1	69	41.3	0	0	---	0.00	29.985 
00:30	51.0	51.0	51.0	71	41.9	0	0	---	0.00	29.988 
00:35	50.8	50.8	50.8	72	42.1	0	0	---	0.00	29.988 
00:40	50.7	50.7	50.7	73	42.4	0	0	---	0.00	29.988 
00:45	50.7	50.7	50.7	73	42.4	0	0	---	0.00	29.987 
00:50	50.5	50.5	50.5	73	42.2	0	0	---	0.00	29.987 
00:55	50.4	50.4	50.4	73	42.1	0	0	---	0.00	29.987 
01:00	50.2	50.2	50.2	74	42.2	0	0	---	0.00	29.989 
01:05	50.1	50.1	50.1	74	42.1	0	0	---	0.00	29.989 
01:10	49.9	49.9	49.9	75	42.3	0	0	---	0.00	29.989 
01:15	49.8	49.8	49.8	75	42.2	0	0	---	0.00	29.990 
01:20	49.8	49.8	49.8	76	42.5	0	0	---	0.00	29.990 
01:25	49.8	49.8	49.8	76	42.5	0	0	---	0.00	29.990 
01:30	49.6	49.6	49.6	76	42.3	0	0	---	0.00	29.990 
01:35	49.4	49.4	49.4	76	42.2	0	0	---	0.00	29.990 
01:40	49.4	49.4	49.4	77	42.5	0	0	---	0.00	29.990 
01:45	49.5	49.5	49.5	77	42.6	0	0	---	0.00	30.003 
01:50	49.5	49.5	49.5	77	42.6	0	0	---	0.00	30.003 
01:55	49.5	49.5	49.5	77	42.6	0	0	---	0.00	30.003 
02:00	49.4	49.4	49.4	77	42.5	0	0	---	0.00	29.993 
02:05	49.2	49.2	49.2	77	42.3	0	0	---	0.00	29.993 
02:10	49.1	49.1	49.1	77	42.2	0	0	---	0.00	29.993 
02:15	48.9	48.9	48.9	78	42.3	0	0	---	0.00	29.988 
02:20	48.8	48.8	48.8	78	42.2	0	0	---	0.00	29.988 
02:25	48.6	48.6	48.6	79	42.4	0	0	---	0.00	29.988 
02:30	48.5	48.5	48.5	79	42.3	0	0	---	0.00	29.989 
02:35	48.5	48.5	48.5	79	42.3	0	0	---	0.00	29.989 
02:40	48.3	48.3	48.3	79	42.1	0	0	---	0.00	29.989 
02:45	48.3	48.3	48.3	80	42.4	0	0	---	0.00	29.991 
02:50	48.2	48.2	48.2	79	42.0	0	0	---	0.00	29.991 
02:55	48.2	48.2	48.2	80	42.3	0	0	---	0.00	29.991 
03:00	48.2	48.2	48.2	80	42.3	0	0	---	0.00	29.995 
03:05	48.0	48.0	48.0	80	42.1	0	0	---	0.00	29.995 
03:10	48.0	48.0	48.0	80	42.1	0	0	---	0.00	29.995 
03:15	48.0	48.0	48.0	80	42.1	0	0	---	0.00	29.994 
03:20	47.9	47.9	47.9	81	42.4	0	0	---	0.00	29.994 
03:25	47.9	47.9	47.9	81	42.4	0	0	---	0.00	29.994 
03:30	47.9	47.9	47.9	81	42.4	0	0	---	0.00	29.989 
03:35	47.9	47.9	47.9	81	42.4	0	0	---	0.00	29.989 
03:40	47.9	47.9	47.9	81	42.4	0	0	---	0.00	29.989 
03:45	47.9	47.9	47.9	81	42.4	0	0	---	0.00	29.988 
03:50	48.0	48.0	48.0	82	42.8	0	0	---	0.00	29.988 
03:55	48.2	48.2	48.2	82	43.0	0	0	---	0.00	29.988 
04:00	48.3	48.3	48.3	82	43.1	0	0	---	0.00	29.989 
04:05	48.5	48.5	48.5	82	43.3	0	0	---	0.00	29.989 
04:10	48.5	48.5	48.5	82	43.3	0	0	---	0.00	29.989 
04:15	48.6	48.6	48.6	82	43.4	0	0	---	0.00	29.998 
04:20	48.6	48.6	48.6	82	43.4	0	0	---	0.00	29.998 
04:25	48.6	48.6	48.6	82	43.4	0	0	---	0.00	29.998 
04:30	48.8	48.8	48.8	83	43.9	0	0	---	0.00	29.992 
04:35	48.8	48.8	48.8	83	43.9	0	0	---	0.00	29.992 
04:40	48.8	48.8	48.8	83	43.9	0	0	---	0.00	29.992 
04:45	48.8	48.8	48.8	83	43.9	0	0	---	0.00	29.988 
04:50	48.9	48.9	48.9	84	44.3	0	0	---	0.00	29.988 
04:55	49.2	49.2	49.2	84	44.6	0	0	---	0.00	29.988 
05:00	49.4	49.4	49.4	84	44.8	0	0	---	0.00	29.994 
05:05	49.5	49.5	49.5	84	44.9	0	0	---	0.00	29.994 
05:10	49.8	49.8	49.8	83	44.8	0	0	---	0.00	29.994 
05:15	49.8	49.8	49.8	83	44.8	0	0	---	0.00	30.001 
05:20	49.9	49.9	49.9	83	44.9	0	0	---	0.00	30.001 
05:25	50.1	50.1	50.1	83	45.1	0	0	---	0.00	30.001 
05:30	50.2	50.2	50.2	83	45.2	0	0	---	0.00	30.005 
05:35	50.4	50.4	50.4	83	45.4	0	0	---	0.00	30.005 
05:40	50.5	50.5	50.5	83	45.5	0	0	---	0.00	30.005 
05:45	50.7	50.7	50.7	83	45.7	0	0	---	0.00	30.003 
05:50	50.7	50.7	50.7	83	45.7	0	0	---	0.00	30.003 
05:55	50.8	50.8	50.8	83	45.8	0	0	---	0.00	30.003 
06:00	51.0	51.0	51.0	83	46.0	0	0	---	0.00	30.003 
06:05	51.0	51.0	51.0	83	46.0	0	0	---	0.00	30.003 
06:10	51.0	51.0	51.0	83	46.0	0	0	---	0.00	30.003 
06:15	51.1	51.1	51.1	84	46.4	0	0	---	0.00	30.003 
06:20	51.1	51.1	51.1	84	46.4	0	0	---	0.00	30.003 
06:25	51.3	51.3	51.3	84	46.6	0	0	---	0.00	30.003 
06:30	51.3	51.3	51.3	84	46.6	0	0	---	0.00	30.005 
06:35	51.3	51.3	51.3	84	46.6	0	0	---	0.00	30.005 
06:40	51.1	51.1	51.1	80	45.1	0	1	292	0.00	30.005 
06:45	51.4	51.4	51.4	76	44.1	0	1	292	0.00	30.007 
06:50	51.9	51.9	51.9	74	43.9	0	1	292	0.00	30.007 
06:55	52.2	52.2	52.2	73	43.8	0	1	292	0.00	30.007 
07:00	52.3	52.3	52.3	72	43.5	0	1	292	0.00	30.010 
07:05	52.5	52.5	52.5	72	43.7	0	0	---	0.00	30.010 
07:10	52.5	52.5	52.5	72	43.7	0	0	---	0.00	30.010 
07:15	52.5	52.5	52.5	73	44.1	0	0	---	0.00	30.023 
07:20	52.5	52.5	52.5	72	43.7	0	0	---	0.00	30.023 
07:25	52.5	52.5	52.5	72	43.7	0	0	---	0.00	30.023 
07:30	52.6	52.6	52.6	73	44.2	0	0	---	0.00	30.032 
07:35	52.6	52.6	52.6	73	44.2	0	0	---	0.00	30.032 
07:40	52.6	52.6	52.6	74	44.6	0	0	---	0.00	30.032 
07:45	52.6	52.6	52.6	75	44.9	0	0	---	0.00	30.035 
07:50	52.8	52.8	52.8	73	44.4	0	0	---	0.00	30.035 
07:55	52.9	52.9	52.9	73	44.5	0	0	---	0.00	30.035 
08:00	53.1	53.1	53.1	73	44.7	0	1	292	0.00	30.033 
08:05	53.2	53.2	53.2	73	44.8	0	0	---	0.00	30.033 
08:10	53.5	53.5	53.5	74	45.4	0	1	292	0.00	30.033 
08:15	53.6	53.6	53.6	73	45.2	0	0	---	0.00	30.038 
08:20	53.8	53.8	53.8	73	45.3	0	1	292	0.00	30.038 
08:25	54.1	54.1	54.1	73	45.6	0	0	---	0.00	30.038 
08:30	54.4	54.4	54.4	72	45.6	0	1	292	0.00	30.040 
08:35	54.5	54.5	54.5	73	46.0	0	1	292	0.00	30.040 
08:40	54.7	54.7	54.7	73	46.2	0	1	292	0.00	30.040 
08:45	55.0	55.0	55.0	72	46.1	0	1	292	0.00	30.042 
08:50	55.3	55.3	55.3	72	46.4	0	1	292	0.00	30.042 
08:55	55.6	55.6	55.6	72	46.7	0	2	292	0.00	30.042 
09:00	56.2	56.2	56.2	73	47.7	0	2	292	0.00	30.036 
09:05	57.0	57.0	57.0	71	47.7	1	3	292	0.00	30.036 
09:10	58.1	58.1	58.1	69	48.0	1	4	292	0.00	30.036 
09:15	58.7	58.7	58.7	69	48.6	0	4	68	0.00	30.037 
09:20	59.2	59.2	59.2	69	49.0	0	2	68	0.00	30.037 
09:25	59.6	59.6	59.6	68	49.0	1	4	68	0.00	30.037 
09:30	60.2	60.2	60.2	68	49.6	0	2	68	0.00	30.026 
09:35	61.0	61.0	61.0	67	50.0	1	3	68	0.00	30.026 
09:40	62.0	62.0	62.0	64	49.7	2	6	68	0.00	30.026 
09:45	62.7	62.7	62.7	63	49.9	1	3	68	0.00	30.022 
09:50	63.1	63.1	63.1	63	50.3	1	4	68	0.00	30.022 
09:55	63.7	63.7	63.7	63	50.9	0	2	68	0.00	30.022 
10:00	64.5	64.5	64.5	62	51.2	0	2	68	0.00	30.021 
10:05	65.6	65.6	65.6	59	50.9	1	4	90	0.00	30.021 
10:10	66.3	66.3	66.3	59	51.5	1	3	90	0.00	30.021 
10:15	66.9	66.9	66.9	59	52.1	2	5	90	0.00	30.025 
10:20	67.6	67.6	67.6	60	53.2	1	3	90	0.00	30.025 
10:25	67.9	67.9	67.9	61	53.9	1	3	112	0.00	30.025 
10:30	68.1	68.1	68.1	62	54.6	0	4	112	0.00	30.018 
10:35	68.3	68.3	68.3	62	54.8	0	2	112	0.00	30.018 
10:40	68.4	68.4	68.4	62	54.9	1	4	112	0.00	30.018 
10:45	68.6	68.6	68.6	62	55.0	1	2	112	0.00	30.014 
10:50	68.8	68.8	68.8	63	55.7	0	1	112	0.00	30.014 
10:55	68.9	68.9	68.9	63	55.8	1	3	112	0.00	30.014 
11:00	68.9	68.9	68.9	63	55.8	1	3	112	0.00	30.014 
11:05	68.9	68.9	68.9	63	55.8	0	3	112	0.00	30.014 
11:10	69.1	69.1	69.1	64	56.4	1	3	112	0.00	30.014 
11:15	69.6	69.6	69.6	64	56.9	0	2	112	0.00	30.016 
11:20	69.9	69.9	69.9	62	56.3	1	2	135	0.00	30.016 
11:25	70.1	70.1	70.1	62	56.5	0	2	135	0.00	30.016 
11:30	70.4	70.4	70.4	62	56.7	0	3	135	0.00	30.013 
11:35	70.4	70.4	70.4	60	55.8	1	3	135	0.00	30.013 
11:40	70.6	70.6	70.6	61	56.5	1	4	135	0.00	30.013 
11:45	70.8	70.8	70.8	62	57.1	0	2	135	0.00	30.014 
11:50	71.1	71.1	71.1	62	57.4	0	1	135	0.00	30.014 
11:55	71.5	71.5	71.5	62	57.8	0	3	135	0.00	30.014 
12:00	71.6	71.6	71.6	61	57.4	0	2	135	0.00	30.013 
12:05	72.1	72.1	72.1	59	57.0	0	2	135	0.00	30.013 
12:10	72.7	72.7	72.7	57	56.6	1	5	135	0.00	30.013 
12:15	73.2	73.2	73.2	56	56.5	1	3	112	0.00	30.014 
12:20	73.3	73.3	73.3	57	57.1	1	3	112	0.00	30.014 
12:25	73.7	73.7	73.7	59	58.5	1	4	135	0.00	30.014 
12:30	73.9	73.9	73.9	55	56.7	1	6	292	0.00	30.010 
12:35	74.2	74.2	74.2	56	57.5	1	3	112	0.00	30.010 
12:40	74.6	74.6	74.6	55	57.3	1	3	90	0.00	30.010 
12:45	75.1	75.1	77.6	55	57.8	1	3	90	0.00	30.003 
12:50	75.8	75.8	78.0	54	57.9	0	4	90	0.00	30.003 
12:55	76.1	76.1	78.1	49	55.5	2	7	112	0.00	30.003 
13:00	76.3	76.3	78.2	50	56.3	0	2	112	0.00	29.998 
13:05	76.5	76.5	78.3	47	54.7	1	7	112	0.00	29.998 
13:10	76.7	76.7	78.4	49	56.1	1	3	112	0.00	29.998 
13:15	76.8	76.8	78.5	50	56.7	0	3	202	0.00	29.992 
13:20	77.0	77.0	78.5	47	55.2	1	4	180	0.00	29.992 
13:25	77.2	77.2	78.6	47	55.4	1	5	112	0.00	29.992 
13:30	77.2	77.2	78.6	47	55.4	1	3	90	0.00	29.988 
13:35	77.0	77.0	78.5	47	55.2	1	3	68	0.00	29.988 
13:40	77.0	77.0	78.5	47	55.2	1	3	68	0.00	29.988 
13:45	77.0	77.0	78.5	47	55.2	1	3	68	0.00	29.981 
13:50	77.6	77.6	78.9	48	56.3	0	3	292	0.00	29.981 
13:55	77.9	77.9	79.1	48	56.6	0	1	292	0.00	29.981 
14:00	78.1	78.1	79.2	47	56.2	1	9	112	0.00	29.973 
14:05	78.3	78.3	79.2	46	55.8	1	5	248	0.00	29.973 
14:10	79.0	79.0	79.8	47	57.0	1	6	112	0.00	29.973 
14:15	79.4	79.4	80.0	46	56.8	2	6	90	0.00	29.965 
14:20	79.6	79.6	80.0	45	56.4	0	3	248	0.00	29.965 
14:25	79.9	79.9	80.1	43	55.4	1	5	90	0.00	29.965 
14:30	80.1	80.1	80.3	43	55.6	1	3	248	0.00	29.964 
14:35	80.5	80.5	81.0	48	59.0	1	3	248	0.00	29.964 
14:40	80.5	80.5	80.8	46	57.8	1	3	90	0.00	29.964 
14:45	80.9	80.9	81.1	45	57.5	1	3	90	0.00	29.964 
14:50	80.9	80.9	81.0	44	56.9	1	4	270	0.00	29.964 
14:55	80.1	80.1	80.4	45	56.8	1	3	248	0.00	29.964 
15:00	79.8	79.8	80.3	46	57.2	0	3	248	0.00	29.964 
15:05	80.1	80.1	80.5	46	57.4	1	3	248	0.00	29.964 
15:10	81.1	81.1	81.4	46	58.3	1	3	270	0.00	29.964 
15:15	81.6	81.6	81.7	45	58.2	1	4	270	0.00	29.958 
15:20	81.4	81.4	81.4	44	57.4	1	3	270	0.00	29.958 
15:25	81.4	81.4	81.6	46	58.6	1	3	315	0.00	29.958 
15:30	81.2	81.2	81.5	46	58.4	1	3	90	0.00	29.952 
15:35	81.8	81.8	82.0	46	59.0	0	2	90	0.00	29.952 
15:40	82.6	82.6	82.7	45	59.1	1	5	315	0.00	29.952 
15:45	83.2	83.2	83.0	43	58.3	1	3	315	0.00	29.949 
15:50	83.6	83.6	83.2	42	58.0	0	2	292	0.00	29.949 
15:55	83.4	83.4	83.0	42	57.9	0	2	292	0.00	29.949 
16:00	82.8	82.8	82.4	42	57.3	1	6	248	0.00	29.950 
16:05	82.6	82.6	82.7	45	59.1	1	3	248	0.00	29.950 
16:10	82.8	82.8	82.7	44	58.6	0	3	248	0.00	29.950 
16:15	82.2	82.2	82.0	43	57.4	1	3	248	0.00	29.947 
16:20	81.8	81.8	81.5	42	56.4	0	3	248	0.00	29.947 
16:25	81.8	81.8	81.4	41	55.8	1	3	248	0.00	29.947 
16:30	82.4	82.4	81.8	40	55.6	1	2	248	0.00	29.945 
16:35	83.2	83.2	82.5	40	56.3	1	3	248	0.00	29.945 
16:40	83.4	83.4	82.4	38	55.1	2	4	248	0.00	29.945 
16:45	83.6	83.6	83.2	42	58.0	0	1	248	0.00	29.930 
16:50	84.1	84.1	83.4	40	57.1	0	3	248	0.00	29.930 
16:55	84.3	84.3	83.4	39	56.6	0	3	248	0.00	29.930 
17:00	84.5	84.5	83.5	38	56.1	0	1	248	0.00	29.918 
17:05	84.3	84.3	83.4	39	56.6	1	3	248	0.00	29.918 
17:10	84.3	84.3	83.4	39	56.6	0	2	248	0.00	29.918 
17:15	84.5	84.5	83.8	40	57.5	0	2	248	0.00	29.914 
17:20	84.7	84.7	83.7	38	56.2	0	2	248	0.00	29.914 
17:25	84.9	84.9	83.9	38	56.4	0	2	248	0.00	29.914 
17:30	85.3	85.3	84.5	39	57.5	0	2	248	0.00	29.911 
17:35	85.1	85.1	84.1	38	56.6	0	2	248	0.00	29.911 
17:40	84.5	84.5	84.0	41	58.2	0	2	248	0.00	29.911 
17:45	84.5	84.5	83.0	35	53.8	0	2	248	0.00	29.911 
17:50	85.1	85.1	83.5	34	53.5	0	1	248	0.00	29.911 
17:55	85.5	85.5	84.2	36	55.5	0	2	248	0.00	29.911 
18:00	85.9	85.9	84.6	36	55.8	0	2	248	0.00	29.910 
18:05	85.9	85.9	84.4	35	55.0	0	3	270	0.00	29.910 
18:10	85.5	85.5	84.0	35	54.7	0	4	270	0.00	29.910 
18:15	84.9	84.9	83.6	36	54.9	0	3	248	0.00	29.910 
18:20	84.7	84.7	83.2	35	54.0	1	3	248	0.00	29.910 
18:25	84.3	84.3	82.9	35	53.6	0	2	248	0.00	29.910 
18:30	84.1	84.1	82.7	35	53.5	1	3	248	0.00	29.905 
18:35	84.0	84.0	82.6	35	53.4	1	2	248	0.00	29.905 
18:40	83.8	83.8	82.5	36	54.0	0	2	248	0.00	29.905 
18:45	83.6	83.6	82.5	37	54.5	0	1	248	0.00	29.897 
18:50	83.4	83.4	82.3	37	54.4	0	1	248	0.00	29.897 
18:55	83.4	83.4	82.2	36	53.6	0	2	248	0.00	29.897 
19:00	83.4	83.4	82.4	38	55.1	0	1	248	0.00	29.893 
19:05	83.4	83.4	82.4	38	55.1	0	1	248	0.00	29.893 
19:10	83.2	83.2	82.3	38	54.9	0	1	248	0.00	29.893 
19:15	83.2	83.2	82.1	37	54.2	0	2	248	0.00	29.881 
19:20	83.0	83.0	82.2	39	55.5	0	2	248	0.00	29.881 
19:25	82.6	82.6	82.0	40	55.8	0	3	248	0.00	29.881 
19:30	82.4	82.4	81.8	40	55.6	0	1	248	0.00	29.887 
19:35	82.2	82.2	81.7	41	56.1	0	1	248	0.00	29.887 
19:40	81.8	81.8	81.2	39	54.4	0	1	248	0.00	29.887 
19:45	81.4	81.4	81.2	42	56.1	0	0	---	0.00	29.888 
19:50	81.1	81.1	80.9	42	55.8	0	0	---	0.00	29.888 
19:55	80.7	80.7	80.6	42	55.4	0	0	---	0.00	29.888 
20:00	80.3	80.3	80.4	43	55.7	0	0	---	0.00	29.898 
20:05	79.8	79.8	80.1	44	55.9	0	0	---	0.00	29.898 
20:10	79.6	79.6	80.0	44	55.7	0	0	---	0.00	29.898 
20:15	79.2	79.2	79.8	45	56.0	0	1	248	0.00	29.914 
20:20	79.0	79.0	79.7	46	56.4	0	0	---	0.00	29.914 
20:25	78.6	78.6	79.5	47	56.7	0	0	---	0.00	29.914 
20:30	78.5	78.5	79.4	47	56.6	0	0	---	0.00	29.925 
20:35	78.3	78.3	79.4	50	58.1	0	2	248	0.00	29.925 
20:40	78.1	78.1	79.4	51	58.5	1	3	112	0.00	29.925 
20:45	77.7	77.7	79.2	53	59.2	0	3	112	0.00	29.921 
20:50	77.2	77.2	78.8	54	59.2	0	1	112	0.00	29.921 
20:55	76.7	76.7	78.5	56	59.8	0	2	112	0.00	29.921 
21:00	76.3	76.3	78.3	57	59.9	0	2	112	0.00	29.929 
21:05	75.8	75.8	77.9	58	59.9	0	1	112	0.00	29.929 
21:10	75.4	75.4	77.7	58	59.6	0	3	270	0.00	29.929 
21:15	75.1	75.1	77.5	58	59.3	0	1	270	0.00	29.930 
21:20	74.9	74.9	74.9	59	59.6	0	1	270	0.00	29.930 
21:25	74.7	74.7	74.7	59	59.4	0	1	270	0.00	29.930 
21:30	74.6	74.6	74.6	60	59.8	0	0	---	0.00	29.937 
21:35	74.2	74.2	74.2	61	59.9	0	2	270	0.00	29.937 
21:40	74.0	74.0	74.0	61	59.7	0	2	270	0.00	29.937 
21:45	74.0	74.0	74.0	60	59.2	0	1	270	0.00	29.935 
21:50	73.9	73.9	73.9	60	59.1	0	1	270	0.00	29.935 
21:55	73.9	73.9	73.9	60	59.1	0	1	270	0.00	29.935 
22:00	73.9	73.9	73.9	60	59.1	0	3	112	0.00	29.948 
22:05	73.7	73.7	73.7	60	58.9	1	4	112	0.00	29.948 
22:10	73.5	73.5	73.5	61	59.2	1	3	112	0.00	29.948 
22:15	73.2	73.2	73.2	61	58.9	0	3	112	0.00	29.943 
22:20	72.8	72.8	72.8	62	59.0	0	1	112	0.00	29.943 
22:25	72.7	72.7	72.7	62	58.9	0	2	112	0.00	29.943 
22:30	72.3	72.3	72.3	63	59.0	0	1	112	0.00	29.937 
22:35	72.1	72.1	72.1	64	59.2	0	2	112	0.00	29.937 
22:40	72.0	72.0	72.0	65	59.6	0	1	112	0.00	29.937 
22:45	71.8	71.8	71.8	65	59.4	0	2	112	0.00	29.951 
22:50	71.6	71.6	71.6	68	60.5	0	3	112	0.00	29.951 
22:55	70.3	70.3	70.3	77	62.7	3	9	90	0.04	29.951 
23:00	66.8	66.8	66.8	81	60.8	5	15	248	0.14	29.992 
23:05	64.7	64.7	64.7	85	60.1	3	11	270	0.05	29.992 
23:10	63.7	63.7	63.7	88	60.1	2	5	248	0.07	29.992 
23:15	63.2	63.2	63.2	89	59.9	0	2	270	0.04	30.028 
23:20	63.1	63.1	63.1	90	60.1	0	2	270	0.02	30.028 
23:25	62.9	62.9	62.9	91	60.2	0	1	270	0.02	30.028 
23:30	62.9	62.9	62.9	91	60.2	0	0	---	0.01	30.022 
23:35	62.9	62.9	62.9	91	60.2	0	0	---	0.03	30.022 
23:40	63.1	63.1	63.1	92	60.7	0	0	---	0.02	30.022 
23:45	63.1	63.1	63.1	92	60.7	0	1	270	0.02	30.023 
23:50	62.9	62.9	62.9	92	60.5	0	0	---	0.02	30.023 
23:55	62.9	62.9	62.9	92	60.5	0	0	---	0.01	30.023 

CoCoRaHS
IN-AL-39
A2 Web Hosting
Creative Commons License
GoDaddy
search engine by freefind advanced

loaded 2018-11-14 00:27:03 • last modified 2010-11-18 10:43:29
Privacy PolicyDisclaimer
• wx.awcolley.com is powered by PmWiki v.2002016 •
• all content (unless otherwise noted) © 2018 A W Colley